sensor_id;sensor_type;location;lat;lon;timestamp;pressure;altitude;pressure_sealevel;temperature;humidity
77124;BME280;66079;47.646;19.130;2023-05-10T00:00:20;100632.34;;;13.15;55.97
77124;BME280;66079;47.646;19.130;2023-05-10T00:03:24;100640.03;;;13.04;57.88
77124;BME280;66079;47.646;19.130;2023-05-10T00:06:27;100646.88;;;12.98;58.54
77124;BME280;66079;47.646;19.130;2023-05-10T00:09:30;100641.91;;;12.90;59.28
77124;BME280;66079;47.646;19.130;2023-05-10T00:12:32;100638.94;;;12.87;59.70
77124;BME280;66079;47.646;19.130;2023-05-10T00:15:35;100633.56;;;12.75;60.42
77124;BME280;66079;47.646;19.130;2023-05-10T00:18:37;100631.00;;;12.69;60.75
77124;BME280;66079;47.646;19.130;2023-05-10T00:21:40;100616.63;;;12.47;61.17
77124;BME280;66079;47.646;19.130;2023-05-10T00:24:42;100627.88;;;12.47;61.55
77124;BME280;66079;47.646;19.130;2023-05-10T00:27:45;100631.72;;;12.38;62.06
77124;BME280;66079;47.646;19.130;2023-05-10T00:30:47;100636.59;;;12.28;62.74
77124;BME280;66079;47.646;19.130;2023-05-10T00:33:50;100629.38;;;12.17;62.96
77124;BME280;66079;47.646;19.130;2023-05-10T00:36:52;100635.00;;;12.14;63.32
77124;BME280;66079;47.646;19.130;2023-05-10T00:39:56;100602.41;;;11.92;63.70
77124;BME280;66079;47.646;19.130;2023-05-10T00:42:58;100627.19;;;12.14;63.30
77124;BME280;66079;47.646;19.130;2023-05-10T00:46:03;100618.16;;;12.23;63.09
77124;BME280;66079;47.646;19.130;2023-05-10T00:49:07;100615.53;;;12.23;62.87
77124;BME280;66079;47.646;19.130;2023-05-10T00:52:09;100625.75;;;12.31;63.13
77124;BME280;66079;47.646;19.130;2023-05-10T00:55:13;100629.69;;;12.40;63.01
77124;BME280;66079;47.646;19.130;2023-05-10T00:58:16;100607.06;;;12.34;63.03
77124;BME280;66079;47.646;19.130;2023-05-10T01:01:19;100597.28;;;12.30;62.91
77124;BME280;66079;47.646;19.130;2023-05-10T01:04:22;100608.47;;;12.30;63.12
77124;BME280;66079;47.646;19.130;2023-05-10T01:07:28;100620.72;;;12.36;63.32
77124;BME280;66079;47.646;19.130;2023-05-10T01:10:31;100607.53;;;12.18;63.72
77124;BME280;66079;47.646;19.130;2023-05-10T01:13:36;100610.16;;;12.18;63.77
77124;BME280;66079;47.646;19.130;2023-05-10T01:16:41;100606.72;;;12.24;63.70
77124;BME280;66079;47.646;19.130;2023-05-10T01:19:44;100610.75;;;12.14;64.20
77124;BME280;66079;47.646;19.130;2023-05-10T01:26:25;100618.50;;;12.33;64.06
77124;BME280;66079;47.646;19.130;2023-05-10T01:36:55;100619.88;;;12.42;64.12
77124;BME280;66079;47.646;19.130;2023-05-10T01:43:38;100619.47;;;12.45;63.77
77124;BME280;66079;47.646;19.130;2023-05-10T01:46:42;100622.44;;;12.55;63.26
77124;BME280;66079;47.646;19.130;2023-05-10T01:49:50;100612.22;;;12.47;63.65
77124;BME280;66079;47.646;19.130;2023-05-10T01:52:56;100596.00;;;12.45;63.82
77124;BME280;66079;47.646;19.130;2023-05-10T01:56:00;100597.16;;;12.56;63.06
77124;BME280;66079;47.646;19.130;2023-05-10T01:59:06;100591.34;;;12.54;63.40
77124;BME280;66079;47.646;19.130;2023-05-10T02:02:12;100615.31;;;12.75;63.06
77124;BME280;66079;47.646;19.130;2023-05-10T02:05:16;100608.50;;;12.68;63.45
77124;BME280;66079;47.646;19.130;2023-05-10T02:08:20;100596.31;;;12.62;63.37
77124;BME280;66079;47.646;19.130;2023-05-10T02:11:24;100588.16;;;12.45;63.61
77124;BME280;66079;47.646;19.130;2023-05-10T02:14:29;100597.41;;;12.48;63.47
77124;BME280;66079;47.646;19.130;2023-05-10T02:17:34;100570.41;;;12.29;63.81
77124;BME280;66079;47.646;19.130;2023-05-10T02:20:38;100578.22;;;12.29;64.02
77124;BME280;66079;47.646;19.130;2023-05-10T02:23:42;100596.22;;;12.37;63.93
77124;BME280;66079;47.646;19.130;2023-05-10T02:26:46;100583.00;;;12.32;63.83
77124;BME280;66079;47.646;19.130;2023-05-10T02:29:51;100586.63;;;12.38;63.83
77124;BME280;66079;47.646;19.130;2023-05-10T02:32:54;100600.41;;;12.45;63.67
77124;BME280;66079;47.646;19.130;2023-05-10T02:35:58;100597.81;;;12.38;63.95
77124;BME280;66079;47.646;19.130;2023-05-10T02:39:02;100601.66;;;12.36;64.20
77124;BME280;66079;47.646;19.130;2023-05-10T02:42:05;100582.00;;;12.33;63.77
77124;BME280;66079;47.646;19.130;2023-05-10T02:45:11;100585.38;;;12.40;63.86
77124;BME280;66079;47.646;19.130;2023-05-10T02:48:16;100581.28;;;12.20;64.60
77124;BME280;66079;47.646;19.130;2023-05-10T02:51:20;100608.28;;;12.32;64.49
77124;BME280;66079;47.646;19.130;2023-05-10T02:54:32;100607.69;;;12.36;64.78
77124;BME280;66079;47.646;19.130;2023-05-10T02:57:40;100596.13;;;12.13;65.18
77124;BME280;66079;47.646;19.130;2023-05-10T03:00:43;100601.09;;;12.21;65.46
77124;BME280;66079;47.646;19.130;2023-05-10T03:03:46;100605.47;;;12.27;65.28
77124;BME280;66079;47.646;19.130;2023-05-10T03:06:49;100586.03;;;12.29;65.29
77124;BME280;66079;47.646;19.130;2023-05-10T03:09:53;100577.06;;;12.19;65.47
77124;BME280;66079;47.646;19.130;2023-05-10T03:13:16;100598.63;;;12.39;65.56
77124;BME280;66079;47.646;19.130;2023-05-10T03:16:28;100600.78;;;12.48;65.16
77124;BME280;66079;47.646;19.130;2023-05-10T03:19:47;100585.41;;;12.34;65.70
77124;BME280;66079;47.646;19.130;2023-05-10T03:23:04;100594.25;;;12.33;66.02
77124;BME280;66079;47.646;19.130;2023-05-10T03:26:07;100596.69;;;12.28;66.33
77124;BME280;66079;47.646;19.130;2023-05-10T03:29:12;100605.13;;;12.23;67.06
77124;BME280;66079;47.646;19.130;2023-05-10T03:32:15;100593.53;;;12.06;67.31
77124;BME280;66079;47.646;19.130;2023-05-10T03:35:18;100577.56;;;11.83;68.19
77124;BME280;66079;47.646;19.130;2023-05-10T03:38:20;100597.00;;;11.93;68.39
77124;BME280;66079;47.646;19.130;2023-05-10T03:41:23;100602.41;;;11.79;69.28
77124;BME280;66079;47.646;19.130;2023-05-10T03:44:25;100604.44;;;11.77;69.56
77124;BME280;66079;47.646;19.130;2023-05-10T03:47:28;100599.59;;;11.61;69.93
77124;BME280;66079;47.646;19.130;2023-05-10T03:50:32;100616.47;;;11.65;70.00
77124;BME280;66079;47.646;19.130;2023-05-10T03:53:35;100612.63;;;11.61;70.31
77124;BME280;66079;47.646;19.130;2023-05-10T03:56:38;100617.25;;;11.52;70.46
77124;BME280;66079;47.646;19.130;2023-05-10T03:59:41;100608.22;;;11.42;70.93
77124;BME280;66079;47.646;19.130;2023-05-10T04:02:43;100608.03;;;11.37;71.27
77124;BME280;66079;47.646;19.130;2023-05-10T04:06:01;100603.44;;;11.26;71.93
77124;BME280;66079;47.646;19.130;2023-05-10T04:09:04;100605.63;;;11.22;72.07
77124;BME280;66079;47.646;19.130;2023-05-10T04:12:07;100592.63;;;11.16;72.21
77124;BME280;66079;47.646;19.130;2023-05-10T04:15:12;100600.03;;;11.25;71.85
77124;BME280;66079;47.646;19.130;2023-05-10T04:18:15;100601.22;;;11.36;71.39
77124;BME280;66079;47.646;19.130;2023-05-10T04:21:17;100608.84;;;11.50;71.13
77124;BME280;66079;47.646;19.130;2023-05-10T04:24:20;100594.22;;;11.62;70.44
77124;BME280;66079;47.646;19.130;2023-05-10T04:27:22;100591.00;;;11.60;70.12
77124;BME280;66079;47.646;19.130;2023-05-10T04:30:25;100601.44;;;11.67;70.18
77124;BME280;66079;47.646;19.130;2023-05-10T04:33:27;100583.63;;;11.64;69.87
77124;BME280;66079;47.646;19.130;2023-05-10T04:36:30;100609.25;;;11.80;69.75
77124;BME280;66079;47.646;19.130;2023-05-10T04:39:34;100610.81;;;11.81;70.29
77124;BME280;66079;47.646;19.130;2023-05-10T04:42:40;100610.81;;;11.81;70.54
77124;BME280;66079;47.646;19.130;2023-05-10T04:45:43;100580.78;;;11.78;69.79
77124;BME280;66079;47.646;19.130;2023-05-10T04:48:45;100594.78;;;11.90;69.58
77124;BME280;66079;47.646;19.130;2023-05-10T04:51:48;100605.22;;;11.84;70.09
77124;BME280;66079;47.646;19.130;2023-05-10T04:54:50;100604.25;;;11.72;70.36
77124;BME280;66079;47.646;19.130;2023-05-10T04:57:53;100614.88;;;11.64;70.75
77124;BME280;66079;47.646;19.130;2023-05-10T05:01:07;100603.03;;;11.55;70.76
77124;BME280;66079;47.646;19.130;2023-05-10T05:04:11;100607.63;;;11.59;70.83
77124;BME280;66079;47.646;19.130;2023-05-10T05:07:14;100607.25;;;11.69;70.69
77124;BME280;66079;47.646;19.130;2023-05-10T05:10:17;100597.22;;;11.53;70.80
77124;BME280;66079;47.646;19.130;2023-05-10T05:13:20;100614.06;;;11.63;70.25
77124;BME280;66079;47.646;19.130;2023-05-10T05:16:22;100621.25;;;11.68;70.16
77124;BME280;66079;47.646;19.130;2023-05-10T05:19:26;100622.88;;;11.69;69.81
77124;BME280;66079;47.646;19.130;2023-05-10T05:22:31;100605.81;;;11.60;69.82
77124;BME280;66079;47.646;19.130;2023-05-10T05:25:34;100623.06;;;11.74;69.66
77124;BME280;66079;47.646;19.130;2023-05-10T05:28:38;100620.25;;;11.82;69.49
77124;BME280;66079;47.646;19.130;2023-05-10T05:31:42;100622.81;;;12.01;68.77
77124;BME280;66079;47.646;19.130;2023-05-10T05:34:45;100619.75;;;12.18;68.09
77124;BME280;66079;47.646;19.130;2023-05-10T05:37:48;100613.72;;;12.24;67.38
77124;BME280;66079;47.646;19.130;2023-05-10T05:40:51;100624.06;;;12.43;66.86
77124;BME280;66079;47.646;19.130;2023-05-10T05:43:57;100636.94;;;12.82;65.77
77124;BME280;66079;47.646;19.130;2023-05-10T05:46:59;100623.94;;;13.13;64.20
77124;BME280;66079;47.646;19.130;2023-05-10T05:50:03;100639.84;;;13.61;62.53
77124;BME280;66079;47.646;19.130;2023-05-10T05:53:06;100624.78;;;13.57;61.93
77124;BME280;66079;47.646;19.130;2023-05-10T05:56:09;100636.09;;;13.51;62.71
77124;BME280;66079;47.646;19.130;2023-05-10T05:59:12;100638.59;;;13.39;62.93
77124;BME280;66079;47.646;19.130;2023-05-10T06:02:15;100644.91;;;13.31;63.39
77124;BME280;66079;47.646;19.130;2023-05-10T06:05:18;100639.84;;;13.37;63.51
77124;BME280;66079;47.646;19.130;2023-05-10T06:08:21;100631.63;;;13.33;63.34
77124;BME280;66079;47.646;19.130;2023-05-10T06:11:25;100642.84;;;13.58;62.56
77124;BME280;66079;47.646;19.130;2023-05-10T06:14:28;100630.53;;;13.65;60.81
77124;BME280;66079;47.646;19.130;2023-05-10T06:17:31;100641.09;;;13.77;60.40
77124;BME280;66079;47.646;19.130;2023-05-10T06:20:34;100650.91;;;13.99;60.00
77124;BME280;66079;47.646;19.130;2023-05-10T06:23:38;100635.81;;;14.19;59.20
77124;BME280;66079;47.646;19.130;2023-05-10T06:26:41;100649.13;;;14.54;59.09
77124;BME280;66079;47.646;19.130;2023-05-10T06:29:43;100631.50;;;14.49;59.06
77124;BME280;66079;47.646;19.130;2023-05-10T06:32:46;100649.66;;;14.44;58.50
77124;BME280;66079;47.646;19.130;2023-05-10T06:35:49;100636.50;;;14.15;57.89
77124;BME280;66079;47.646;19.130;2023-05-10T06:38:52;100641.16;;;14.31;57.66
77124;BME280;66079;47.646;19.130;2023-05-10T06:41:55;100646.00;;;14.63;57.06
77124;BME280;66079;47.646;19.130;2023-05-10T06:44:59;100638.38;;;14.92;56.51
77124;BME280;66079;47.646;19.130;2023-05-10T06:48:02;100639.13;;;15.10;56.06
77124;BME280;66079;47.646;19.130;2023-05-10T06:51:05;100651.22;;;15.23;55.98
77124;BME280;66079;47.646;19.130;2023-05-10T06:54:27;100637.63;;;15.14;55.29
77124;BME280;66079;47.646;19.130;2023-05-10T06:57:31;100629.25;;;15.35;54.85
77124;BME280;66079;47.646;19.130;2023-05-10T07:00:34;100637.38;;;15.91;53.66
77124;BME280;66079;47.646;19.130;2023-05-10T07:03:37;100647.38;;;16.18;52.36
77124;BME280;66079;47.646;19.130;2023-05-10T07:06:40;100641.25;;;16.12;52.30
77124;BME280;66079;47.646;19.130;2023-05-10T07:09:43;100639.50;;;16.29;52.07
77124;BME280;66079;47.646;19.130;2023-05-10T07:12:47;100647.84;;;16.26;52.43
77124;BME280;66079;47.646;19.130;2023-05-10T07:15:50;100639.69;;;16.39;51.40
77124;BME280;66079;47.646;19.130;2023-05-10T07:18:52;100648.91;;;16.14;51.32
77124;BME280;66079;47.646;19.130;2023-05-10T07:21:55;100641.09;;;16.42;50.66
77124;BME280;66079;47.646;19.130;2023-05-10T07:24:58;100642.66;;;16.54;50.86
77124;BME280;66079;47.646;19.130;2023-05-10T07:28:00;100626.78;;;16.61;50.42
77124;BME280;66079;47.646;19.130;2023-05-10T07:31:03;100644.72;;;17.25;49.48
77124;BME280;66079;47.646;19.130;2023-05-10T07:34:06;100642.75;;;17.65;48.21
77124;BME280;66079;47.646;19.130;2023-05-10T07:37:09;100624.69;;;18.07;46.93
77124;BME280;66079;47.646;19.130;2023-05-10T07:40:11;100628.59;;;18.04;46.55
77124;BME280;66079;47.646;19.130;2023-05-10T07:43:14;100620.69;;;18.26;46.26
77124;BME280;66079;47.646;19.130;2023-05-10T07:46:16;100616.16;;;17.78;46.80
77124;BME280;66079;47.646;19.130;2023-05-10T07:49:19;100637.91;;;18.33;46.07
77124;BME280;66079;47.646;19.130;2023-05-10T07:52:22;100636.06;;;18.12;46.26
77124;BME280;66079;47.646;19.130;2023-05-10T07:55:25;100634.81;;;17.98;46.49
77124;BME280;66079;47.646;19.130;2023-05-10T07:58:29;100628.47;;;17.94;46.83
77124;BME280;66079;47.646;19.130;2023-05-10T08:01:34;100633.91;;;18.31;46.08
77124;BME280;66079;47.646;19.130;2023-05-10T08:04:37;100632.88;;;18.10;46.23
77124;BME280;66079;47.646;19.130;2023-05-10T08:07:40;100625.47;;;18.07;47.02
77124;BME280;66079;47.646;19.130;2023-05-10T08:10:43;100635.59;;;18.37;46.17
77124;BME280;66079;47.646;19.130;2023-05-10T08:13:47;100636.31;;;18.32;46.25
77124;BME280;66079;47.646;19.130;2023-05-10T08:16:50;100642.16;;;18.18;46.61
77124;BME280;66079;47.646;19.130;2023-05-10T08:19:53;100623.56;;;18.68;45.71
77124;BME280;66079;47.646;19.130;2023-05-10T08:22:56;100630.16;;;18.65;45.80
77124;BME280;66079;47.646;19.130;2023-05-10T08:25:59;100632.34;;;18.51;46.02
77124;BME280;66079;47.646;19.130;2023-05-10T08:29:02;100635.88;;;18.62;45.90
77124;BME280;66079;47.646;19.130;2023-05-10T08:32:04;100643.44;;;18.53;46.21
77124;BME280;66079;47.646;19.130;2023-05-10T08:35:07;100628.72;;;18.36;46.36
77124;BME280;66079;47.646;19.130;2023-05-10T08:38:09;100633.84;;;18.26;46.85
77124;BME280;66079;47.646;19.130;2023-05-10T08:41:13;100630.47;;;18.47;46.45
77124;BME280;66079;47.646;19.130;2023-05-10T08:44:16;100629.06;;;18.88;45.14
77124;BME280;66079;47.646;19.130;2023-05-10T08:47:20;100622.00;;;18.93;44.63
77124;BME280;66079;47.646;19.130;2023-05-10T08:50:24;100635.72;;;19.58;43.90
77124;BME280;66079;47.646;19.130;2023-05-10T08:53:28;100628.19;;;19.77;43.51
77124;BME280;66079;47.646;19.130;2023-05-10T08:56:35;100622.66;;;19.37;43.50
77124;BME280;66079;47.646;19.130;2023-05-10T08:59:38;100622.63;;;20.15;41.70
77124;BME280;66079;47.646;19.130;2023-05-10T09:02:42;100623.56;;;19.57;42.25
77124;BME280;66079;47.646;19.130;2023-05-10T09:05:47;100625.56;;;19.82;41.74
77124;BME280;66079;47.646;19.130;2023-05-10T09:08:50;100633.66;;;19.60;42.16
77124;BME280;66079;47.646;19.130;2023-05-10T09:11:53;100633.03;;;19.48;43.34
77124;BME280;66079;47.646;19.130;2023-05-10T09:14:58;100620.09;;;19.47;43.02
77124;BME280;66079;47.646;19.130;2023-05-10T09:18:01;100617.09;;;19.07;41.89
77124;BME280;66079;47.646;19.130;2023-05-10T09:21:04;100627.34;;;19.30;42.29
77124;BME280;66079;47.646;19.130;2023-05-10T09:24:08;100638.59;;;19.25;42.83
77124;BME280;66079;47.646;19.130;2023-05-10T09:27:11;100641.88;;;19.32;42.57
77124;BME280;66079;47.646;19.130;2023-05-10T09:30:23;100627.69;;;20.27;41.32
77124;BME280;66079;47.646;19.130;2023-05-10T09:33:26;100626.34;;;20.19;40.42
77124;BME280;66079;47.646;19.130;2023-05-10T09:36:29;100620.13;;;20.55;39.68
77124;BME280;66079;47.646;19.130;2023-05-10T09:39:36;100625.41;;;19.99;41.34
77124;BME280;66079;47.646;19.130;2023-05-10T09:42:41;100627.88;;;19.68;42.15
77124;BME280;66079;47.646;19.130;2023-05-10T09:45:48;100612.34;;;19.72;41.67
77124;BME280;66079;47.646;19.130;2023-05-10T09:48:52;100627.03;;;20.05;39.90
77124;BME280;66079;47.646;19.130;2023-05-10T09:52:05;100612.31;;;21.10;37.60
77124;BME280;66079;47.646;19.130;2023-05-10T09:55:08;100595.34;;;21.42;37.34
77124;BME280;66079;47.646;19.130;2023-05-10T09:58:14;100598.41;;;22.04;37.27
77124;BME280;66079;47.646;19.130;2023-05-10T10:01:17;100594.25;;;21.73;36.85
77124;BME280;66079;47.646;19.130;2023-05-10T10:04:20;100607.81;;;21.16;37.88
77124;BME280;66079;47.646;19.130;2023-05-10T10:07:24;100606.47;;;20.88;38.47
77124;BME280;66079;47.646;19.130;2023-05-10T10:10:28;100586.41;;;21.02;38.01
77124;BME280;66079;47.646;19.130;2023-05-10T10:13:31;100591.03;;;21.91;36.85
77124;BME280;66079;47.646;19.130;2023-05-10T10:16:34;100596.56;;;21.99;35.18
77124;BME280;66079;47.646;19.130;2023-05-10T10:19:37;100590.41;;;22.14;35.18
77124;BME280;66079;47.646;19.130;2023-05-10T10:22:40;100604.41;;;22.24;35.24
77124;BME280;66079;47.646;19.130;2023-05-10T10:25:45;100587.81;;;22.04;33.75
77124;BME280;66079;47.646;19.130;2023-05-10T10:35:19;100575.81;;;21.07;36.02
77124;BME280;66079;47.646;19.130;2023-05-10T10:38:22;100577.84;;;22.39;33.67
77124;BME280;66079;47.646;19.130;2023-05-10T10:41:34;100578.16;;;25.80;28.43
77124;BME280;66079;47.646;19.130;2023-05-10T10:44:37;100574.03;;;23.80;31.01
77124;BME280;66079;47.646;19.130;2023-05-10T10:47:41;100555.66;;;25.46;27.88
77124;BME280;66079;47.646;19.130;2023-05-10T10:50:45;100562.69;;;23.22;30.77
77124;BME280;66079;47.646;19.130;2023-05-10T10:53:51;100571.69;;;27.46;24.94
77124;BME280;66079;47.646;19.130;2023-05-10T10:57:13;100564.13;;;28.52;23.15
77124;BME280;66079;47.646;19.130;2023-05-10T11:03:24;100545.53;;;27.65;23.90
77124;BME280;66079;47.646;19.130;2023-05-10T11:06:31;100548.66;;;27.67;24.02
77124;BME280;66079;47.646;19.130;2023-05-10T11:09:39;100538.69;;;24.96;28.96
77124;BME280;66079;47.646;19.130;2023-05-10T11:13:02;100532.84;;;24.06;29.81
77124;BME280;66079;47.646;19.130;2023-05-10T11:16:17;100529.25;;;23.50;30.79
77124;BME280;66079;47.646;19.130;2023-05-10T11:19:20;100525.25;;;28.29;24.98
77124;BME280;66079;47.646;19.130;2023-05-10T11:22:24;100524.34;;;29.51;23.26
77124;BME280;66079;47.646;19.130;2023-05-10T11:25:28;100527.72;;;26.11;26.80
77124;BME280;66079;47.646;19.130;2023-05-10T11:28:31;100528.81;;;24.64;29.02
77124;BME280;66079;47.646;19.130;2023-05-10T11:31:34;100534.63;;;23.68;30.55
77124;BME280;66079;47.646;19.130;2023-05-10T11:34:38;100513.00;;;22.76;32.64
77124;BME280;66079;47.646;19.130;2023-05-10T11:37:41;100531.47;;;22.42;33.05
77124;BME280;66079;47.646;19.130;2023-05-10T11:40:45;100516.84;;;22.55;32.53
77124;BME280;66079;47.646;19.130;2023-05-10T11:43:50;100520.97;;;22.27;32.56
77124;BME280;66079;47.646;19.130;2023-05-10T11:46:53;100507.34;;;22.05;32.48
77124;BME280;66079;47.646;19.130;2023-05-10T11:49:56;100495.75;;;21.91;33.48
77124;BME280;66079;47.646;19.130;2023-05-10T11:52:59;100498.22;;;21.72;34.21
77124;BME280;66079;47.646;19.130;2023-05-10T11:56:05;100506.69;;;21.64;34.73
77124;BME280;66079;47.646;19.130;2023-05-10T11:59:08;100513.28;;;21.82;34.52
77124;BME280;66079;47.646;19.130;2023-05-10T12:02:15;100498.91;;;21.98;34.07
77124;BME280;66079;47.646;19.130;2023-05-10T12:05:18;100507.84;;;22.56;32.80
77124;BME280;66079;47.646;19.130;2023-05-10T12:08:25;100516.00;;;23.21;31.92
77124;BME280;66079;47.646;19.130;2023-05-10T12:11:28;100512.16;;;27.15;26.41
77124;BME280;66079;47.646;19.130;2023-05-10T12:14:34;100499.78;;;31.17;20.89
77124;BME280;66079;47.646;19.130;2023-05-10T12:17:38;100502.63;;;32.21;18.83
77124;BME280;66079;47.646;19.130;2023-05-10T12:20:44;100507.56;;;28.88;22.07
77124;BME280;66079;47.646;19.130;2023-05-10T12:23:50;100499.97;;;32.92;18.37
77124;BME280;66079;47.646;19.130;2023-05-10T12:26:53;100502.66;;;33.23;18.12
77124;BME280;66079;47.646;19.130;2023-05-10T12:29:59;100510.53;;;30.93;20.52
77124;BME280;66079;47.646;19.130;2023-05-10T12:33:07;100501.75;;;26.74;25.80
77124;BME280;66079;47.646;19.130;2023-05-10T12:36:12;100470.97;;;24.75;28.30
77124;BME280;66079;47.646;19.130;2023-05-10T12:39:14;100503.56;;;23.45;30.58
77124;BME280;66079;47.646;19.130;2023-05-10T12:42:17;100490.19;;;22.75;31.98
77124;BME280;66079;47.646;19.130;2023-05-10T12:45:20;100498.16;;;22.36;33.18
77124;BME280;66079;47.646;19.130;2023-05-10T12:48:23;100477.88;;;22.16;32.70
77124;BME280;66079;47.646;19.130;2023-05-10T12:51:26;100484.19;;;22.20;33.54
77124;BME280;66079;47.646;19.130;2023-05-10T12:54:28;100482.66;;;22.53;32.51
77124;BME280;66079;47.646;19.130;2023-05-10T12:57:31;100489.78;;;22.63;31.89
77124;BME280;66079;47.646;19.130;2023-05-10T13:00:33;100471.06;;;23.06;31.81
77124;BME280;66079;47.646;19.130;2023-05-10T13:03:36;100456.44;;;23.61;30.66
77124;BME280;66079;47.646;19.130;2023-05-10T13:06:38;100454.06;;;23.59;31.20
77124;BME280;66079;47.646;19.130;2023-05-10T13:09:41;100468.16;;;23.55;31.32
77124;BME280;66079;47.646;19.130;2023-05-10T13:12:43;100437.28;;;23.17;31.08
77124;BME280;66079;47.646;19.130;2023-05-10T13:15:47;100436.59;;;23.53;30.87
77124;BME280;66079;47.646;19.130;2023-05-10T13:18:50;100456.88;;;24.42;28.01
77124;BME280;66079;47.646;19.130;2023-05-10T13:21:53;100448.22;;;24.00;28.33
77124;BME280;66079;47.646;19.130;2023-05-10T13:24:55;100448.28;;;25.64;26.58
77124;BME280;66079;47.646;19.130;2023-05-10T13:27:58;100444.69;;;29.89;20.89
77124;BME280;66079;47.646;19.130;2023-05-10T13:31:01;100432.63;;;30.37;19.77
77124;BME280;66079;47.646;19.130;2023-05-10T13:34:05;100425.28;;;28.67;21.04
77124;BME280;66079;47.646;19.130;2023-05-10T13:37:07;100421.53;;;29.15;21.39
77124;BME280;66079;47.646;19.130;2023-05-10T13:40:10;100425.75;;;30.60;19.80
77124;BME280;66079;47.646;19.130;2023-05-10T13:43:12;100416.34;;;29.39;21.41
77124;BME280;66079;47.646;19.130;2023-05-10T13:46:15;100415.56;;;26.43;24.87
77124;BME280;66079;47.646;19.130;2023-05-10T13:49:17;100418.63;;;26.59;25.19
77124;BME280;66079;47.646;19.130;2023-05-10T13:52:20;100422.41;;;26.36;25.21
77124;BME280;66079;47.646;19.130;2023-05-10T13:55:23;100412.56;;;24.70;26.43
77124;BME280;66079;47.646;19.130;2023-05-10T13:58:26;100398.69;;;24.09;27.57
77124;BME280;66079;47.646;19.130;2023-05-10T14:01:29;100389.66;;;25.01;26.07
77124;BME280;66079;47.646;19.130;2023-05-10T14:04:31;100396.66;;;24.19;27.91
77124;BME280;66079;47.646;19.130;2023-05-10T14:07:34;100400.44;;;23.39;29.44
77124;BME280;66079;47.646;19.130;2023-05-10T14:10:36;100400.81;;;23.69;28.54
77124;BME280;66079;47.646;19.130;2023-05-10T14:13:40;100393.56;;;25.31;26.13
77124;BME280;66079;47.646;19.130;2023-05-10T14:16:45;100404.72;;;23.77;27.80
77124;BME280;66079;47.646;19.130;2023-05-10T14:19:47;100381.19;;;23.05;29.10
77124;BME280;66079;47.646;19.130;2023-05-10T14:22:50;100391.53;;;23.06;29.11
77124;BME280;66079;47.646;19.130;2023-05-10T14:25:53;100395.97;;;23.11;29.30
77124;BME280;66079;47.646;19.130;2023-05-10T14:28:56;100378.22;;;23.35;29.07
77124;BME280;66079;47.646;19.130;2023-05-10T14:31:59;100388.06;;;23.72;28.99
77124;BME280;66079;47.646;19.130;2023-05-10T14:35:02;100382.34;;;24.02;28.52
77124;BME280;66079;47.646;19.130;2023-05-10T14:38:05;100384.72;;;24.67;27.63
77124;BME280;66079;47.646;19.130;2023-05-10T14:41:07;100390.34;;;23.78;28.64
77124;BME280;66079;47.646;19.130;2023-05-10T14:44:13;100380.78;;;22.93;29.63
77124;BME280;66079;47.646;19.130;2023-05-10T14:47:15;100375.72;;;22.96;29.96
77124;BME280;66079;47.646;19.130;2023-05-10T14:50:18;100385.22;;;22.45;30.12
77124;BME280;66079;47.646;19.130;2023-05-10T14:53:37;100387.66;;;22.70;30.40
77124;BME280;66079;47.646;19.130;2023-05-10T14:56:40;100392.97;;;22.70;29.76
77124;BME280;66079;47.646;19.130;2023-05-10T14:59:43;100379.53;;;22.62;28.82
77124;BME280;66079;47.646;19.130;2023-05-10T15:02:46;100377.47;;;22.82;28.75
77124;BME280;66079;47.646;19.130;2023-05-10T15:05:50;100395.56;;;23.22;27.93
77124;BME280;66079;47.646;19.130;2023-05-10T15:08:53;100388.84;;;23.35;28.04
77124;BME280;66079;47.646;19.130;2023-05-10T15:11:56;100379.16;;;23.81;27.37
77124;BME280;66079;47.646;19.130;2023-05-10T15:14:58;100385.53;;;24.49;26.19
77124;BME280;66079;47.646;19.130;2023-05-10T15:18:00;100373.72;;;23.73;27.78
77124;BME280;66079;47.646;19.130;2023-05-10T15:21:03;100393.94;;;23.68;27.95
77124;BME280;66079;47.646;19.130;2023-05-10T15:24:06;100360.16;;;26.09;25.21
77124;BME280;66079;47.646;19.130;2023-05-10T15:27:08;100377.25;;;27.48;23.21
77124;BME280;66079;47.646;19.130;2023-05-10T15:30:11;100379.66;;;29.02;21.36
77124;BME280;66079;47.646;19.130;2023-05-10T15:33:14;100387.91;;;26.08;24.99
77124;BME280;66079;47.646;19.130;2023-05-10T15:36:16;100383.75;;;24.45;27.76
77124;BME280;66079;47.646;19.130;2023-05-10T15:39:20;100379.72;;;27.36;23.81
77124;BME280;66079;47.646;19.130;2023-05-10T15:42:22;100372.38;;;29.60;20.85
77124;BME280;66079;47.646;19.130;2023-05-10T15:45:25;100381.09;;;29.08;21.42
77124;BME280;66079;47.646;19.130;2023-05-10T15:48:27;100377.97;;;28.89;21.64
77124;BME280;66079;47.646;19.130;2023-05-10T15:51:31;100371.44;;;29.07;21.04
77124;BME280;66079;47.646;19.130;2023-05-10T15:54:38;100377.59;;;28.69;21.98
77124;BME280;66079;47.646;19.130;2023-05-10T15:57:41;100368.94;;;30.13;19.96
77124;BME280;66079;47.646;19.130;2023-05-10T16:00:44;100374.00;;;29.94;20.55
77124;BME280;66079;47.646;19.130;2023-05-10T16:03:47;100368.63;;;29.03;21.78
77124;BME280;66079;47.646;19.130;2023-05-10T16:06:49;100370.41;;;29.49;21.72
77124;BME280;66079;47.646;19.130;2023-05-10T16:09:52;100364.03;;;28.20;22.99
77124;BME280;66079;47.646;19.130;2023-05-10T16:12:54;100364.06;;;26.95;24.71